sensor_id;sensor_type;location;lat;lon;timestamp;P1;durP1;ratioP1;P2;durP2;ratioP2
34212;SDS011;20477;51.390;8.102;2022-12-29T07:59:12;1.23;;;0.50;;
34212;SDS011;20477;51.390;8.102;2022-12-29T08:01:39;0.80;;;0.60;;
34212;SDS011;20477;51.390;8.102;2022-12-29T08:04:06;5.00;;;0.60;;
34212;SDS011;20477;51.390;8.102;2022-12-29T08:06:33;1.75;;;0.70;;
34212;SDS011;20477;51.390;8.102;2022-12-29T08:09:00;1.40;;;0.40;;
34212;SDS011;20477;51.390;8.102;2022-12-29T08:11:37;2.30;;;0.60;;
34212;SDS011;20477;51.390;8.102;2022-12-29T08:14:04;0.70;;;0.60;;
34212;SDS011;20477;51.390;8.102;2022-12-29T08:16:31;2.25;;;0.50;;
34212;SDS011;20477;51.390;8.102;2022-12-29T08:18:58;0.88;;;0.50;;
34212;SDS011;20477;51.390;8.102;2022-12-29T08:21:26;1.85;;;0.73;;
34212;SDS011;20477;51.390;8.102;2022-12-29T08:23:53;1.00;;;0.60;;
34212;SDS011;20477;51.390;8.102;2022-12-29T08:26:20;3.03;;;0.35;;
34212;SDS011;20477;51.390;8.102;2022-12-29T08:28:49;1.98;;;0.70;;
34212;SDS011;20477;51.390;8.102;2022-12-29T08:31:19;0.88;;;0.45;;
34212;SDS011;20477;51.390;8.102;2022-12-29T08:33:46;1.38;;;0.60;;
34212;SDS011;20477;51.390;8.102;2022-12-29T08:36:13;1.05;;;0.70;;
34212;SDS011;20477;51.390;8.102;2022-12-29T08:38:40;0.77;;;0.50;;
34212;SDS011;20477;51.390;8.102;2022-12-29T08:41:07;3.60;;;0.65;;
34212;SDS011;20477;51.390;8.102;2022-12-29T08:43:34;2.65;;;0.70;;
34212;SDS011;20477;51.390;8.102;2022-12-29T08:46:01;1.60;;;0.60;;
34212;SDS011;20477;51.390;8.102;2022-12-29T08:48:28;4.47;;;0.70;;
34212;SDS011;20477;51.390;8.102;2022-12-29T08:50:55;5.10;;;0.70;;
34212;SDS011;20477;51.390;8.102;2022-12-29T08:53:22;2.15;;;0.90;;
34212;SDS011;20477;51.390;8.102;2022-12-29T08:55:54;2.42;;;0.60;;
34212;SDS011;20477;51.390;8.102;2022-12-29T08:58:30;1.48;;;0.60;;
34212;SDS011;20477;51.390;8.102;2022-12-29T09:00:57;3.00;;;0.75;;
34212;SDS011;20477;51.390;8.102;2022-12-29T09:03:25;4.03;;;0.88;;
34212;SDS011;20477;51.390;8.102;2022-12-29T09:06:12;1.75;;;0.50;;
34212;SDS011;20477;51.390;8.102;2022-12-29T09:08:40;3.38;;;1.20;;
34212;SDS011;20477;51.390;8.102;2022-12-29T09:13:35;3.33;;;1.08;;
34212;SDS011;20477;51.390;8.102;2022-12-29T09:16:02;1.60;;;0.80;;
34212;SDS011;20477;51.390;8.102;2022-12-29T09:18:29;5.47;;;1.02;;
34212;SDS011;20477;51.390;8.102;2022-12-29T09:20:57;1.80;;;0.60;;
34212;SDS011;20477;51.390;8.102;2022-12-29T09:23:28;3.47;;;1.02;;
34212;SDS011;20477;51.390;8.102;2022-12-29T09:25:56;4.00;;;1.23;;
34212;SDS011;20477;51.390;8.102;2022-12-29T09:28:23;1.17;;;0.70;;
34212;SDS011;20477;51.390;8.102;2022-12-29T09:30:50;5.85;;;0.90;;
34212;SDS011;20477;51.390;8.102;2022-12-29T09:33:18;4.05;;;1.10;;
34212;SDS011;20477;51.390;8.102;2022-12-29T09:35:45;4.53;;;1.15;;
34212;SDS011;20477;51.390;8.102;2022-12-29T09:38:17;3.58;;;1.05;;
34212;SDS011;20477;51.390;8.102;2022-12-29T09:40:45;1.83;;;0.60;;
34212;SDS011;20477;51.390;8.102;2022-12-29T09:49:38;2.63;;;0.80;;
34212;SDS011;20477;51.390;8.102;2022-12-29T09:51:45;2.38;;;0.70;;
34212;SDS011;20477;51.390;8.102;2022-12-29T09:54:23;3.35;;;0.80;;
34212;SDS011;20477;51.390;8.102;2022-12-29T09:56:56;2.55;;;1.02;;
34212;SDS011;20477;51.390;8.102;2022-12-29T09:59:30;2.03;;;0.60;;
34212;SDS011;20477;51.390;8.102;2022-12-29T10:02:12;8.90;;;1.43;;
34212;SDS011;20477;51.390;8.102;2022-12-29T10:04:42;3.55;;;0.93;;
34212;SDS011;20477;51.390;8.102;2022-12-29T10:21:04;5.40;;;1.83;;
34212;SDS011;20477;51.390;8.102;2022-12-29T10:23:45;5.68;;;0.95;;
34212;SDS011;20477;51.390;8.102;2022-12-29T10:26:18;3.70;;;0.93;;
34212;SDS011;20477;51.390;8.102;2022-12-29T10:34:49;7.93;;;0.90;;
34212;SDS011;20477;51.390;8.102;2022-12-29T10:37:55;3.17;;;1.27;;
34212;SDS011;20477;51.390;8.102;2022-12-29T10:40:18;4.00;;;1.15;;
34212;SDS011;20477;51.390;8.102;2022-12-29T10:42:48;3.42;;;0.88;;
34212;SDS011;20477;51.390;8.102;2022-12-29T10:45:18;4.65;;;2.17;;
34212;SDS011;20477;51.390;8.102;2022-12-29T10:50:26;6.38;;;1.55;;
34212;SDS011;20477;51.390;8.102;2022-12-29T10:52:56;10.80;;;2.22;;
34212;SDS011;20477;51.390;8.102;2022-12-29T10:55:26;9.73;;;1.40;;
34212;SDS011;20477;51.390;8.102;2022-12-29T10:57:59;1.48;;;0.70;;
34212;SDS011;20477;51.390;8.102;2022-12-29T11:00:31;2.85;;;1.00;;
34212;SDS011;20477;51.390;8.102;2022-12-29T11:03:23;5.32;;;1.15;;
34212;SDS011;20477;51.390;8.102;2022-12-29T11:06:18;2.22;;;0.80;;
34212;SDS011;20477;51.390;8.102;2022-12-29T11:08:53;4.38;;;1.20;;
34212;SDS011;20477;51.390;8.102;2022-12-29T11:11:24;3.87;;;0.83;;
34212;SDS011;20477;51.390;8.102;2022-12-29T11:14:03;8.38;;;3.03;;
34212;SDS011;20477;51.390;8.102;2022-12-29T11:16:39;6.32;;;2.20;;
34212;SDS011;20477;51.390;8.102;2022-12-29T11:19:19;9.02;;;1.98;;
34212;SDS011;20477;51.390;8.102;2022-12-29T11:21:51;5.57;;;1.33;;
34212;SDS011;20477;51.390;8.102;2022-12-29T11:24:22;10.10;;;1.75;;
34212;SDS011;20477;51.390;8.102;2022-12-29T11:26:56;5.20;;;1.17;;
34212;SDS011;20477;51.390;8.102;2022-12-29T11:29:38;9.57;;;1.42;;
34212;SDS011;20477;51.390;8.102;2022-12-29T11:32:26;7.50;;;1.75;;
34212;SDS011;20477;51.390;8.102;2022-12-29T11:34:56;9.15;;;1.52;;
34212;SDS011;20477;51.390;8.102;2022-12-29T11:40:06;10.70;;;1.42;;
34212;SDS011;20477;51.390;8.102;2022-12-29T11:42:53;6.95;;;1.80;;
34212;SDS011;20477;51.390;8.102;2022-12-29T11:45:22;8.32;;;1.35;;
34212;SDS011;20477;51.390;8.102;2022-12-29T11:47:55;6.50;;;1.30;;
34212;SDS011;20477;51.390;8.102;2022-12-29T11:50:31;5.47;;;1.40;;
34212;SDS011;20477;51.390;8.102;2022-12-29T11:53:04;4.82;;;1.55;;
34212;SDS011;20477;51.390;8.102;2022-12-29T11:55:34;7.70;;;1.65;;
34212;SDS011;20477;51.390;8.102;2022-12-29T11:58:02;10.88;;;1.63;;
34212;SDS011;20477;51.390;8.102;2022-12-29T12:00:30;3.88;;;1.38;;
34212;SDS011;20477;51.390;8.102;2022-12-29T12:03:00;7.97;;;1.48;;
34212;SDS011;20477;51.390;8.102;2022-12-29T12:05:47;3.80;;;1.40;;
34212;SDS011;20477;51.390;8.102;2022-12-29T12:08:33;8.57;;;1.42;;
34212;SDS011;20477;51.390;8.102;2022-12-29T12:11:16;4.00;;;1.33;;
34212;SDS011;20477;51.390;8.102;2022-12-29T12:13:58;11.10;;;1.77;;
34212;SDS011;20477;51.390;8.102;2022-12-29T12:16:50;3.65;;;1.35;;
34212;SDS011;20477;51.390;8.102;2022-12-29T12:19:26;7.90;;;1.50;;
34212;SDS011;20477;51.390;8.102;2022-12-29T12:22:21;6.10;;;1.40;;
34212;SDS011;20477;51.390;8.102;2022-12-29T12:24:54;5.65;;;1.17;;
34212;SDS011;20477;51.390;8.102;2022-12-29T12:27:26;8.00;;;1.92;;
34212;SDS011;20477;51.390;8.102;2022-12-29T12:29:59;10.95;;;1.80;;
34212;SDS011;20477;51.390;8.102;2022-12-29T12:35:26;7.40;;;1.70;;
34212;SDS011;20477;51.390;8.102;2022-12-29T12:41:06;7.97;;;1.60;;
34212;SDS011;20477;51.390;8.102;2022-12-29T12:43:51;6.30;;;1.42;;
34212;SDS011;20477;51.390;8.102;2022-12-29T12:49:11;7.55;;;1.35;;
34212;SDS011;20477;51.390;8.102;2022-12-29T13:00:11;9.75;;;1.83;;
34212;SDS011;20477;51.390;8.102;2022-12-29T13:10:47;7.25;;;1.80;;
34212;SDS011;20477;51.390;8.102;2022-12-29T13:19:30;8.73;;;1.77;;
34212;SDS011;20477;51.390;8.102;2022-12-29T13:22:38;14.77;;;1.70;;
34212;SDS011;20477;51.390;8.102;2022-12-29T13:28:05;4.97;;;1.25;;
34212;SDS011;20477;51.390;8.102;2022-12-29T13:36:22;4.25;;;1.65;;
34212;SDS011;20477;51.390;8.102;2022-12-29T13:39:05;11.75;;;2.85;;
34212;SDS011;20477;51.390;8.102;2022-12-29T13:41:53;7.13;;;1.90;;
34212;SDS011;20477;51.390;8.102;2022-12-29T13:47:15;11.38;;;2.00;;
34212;SDS011;20477;51.390;8.102;2022-12-29T13:49:50;9.02;;;2.60;;
34212;SDS011;20477;51.390;8.102;2022-12-29T13:55:25;14.63;;;2.58;;
34212;SDS011;20477;51.390;8.102;2022-12-29T13:57:56;10.30;;;2.35;;
34212;SDS011;20477;51.390;8.102;2022-12-29T14:00:31;8.10;;;1.95;;
34212;SDS011;20477;51.390;8.102;2022-12-29T14:08:53;7.00;;;2.05;;
34212;SDS011;20477;51.390;8.102;2022-12-29T14:11:22;11.68;;;2.25;;
34212;SDS011;20477;51.390;8.102;2022-12-29T14:14:09;11.90;;;1.95;;
34212;SDS011;20477;51.390;8.102;2022-12-29T14:16:49;7.15;;;1.85;;
34212;SDS011;20477;51.390;8.102;2022-12-29T14:19:34;10.05;;;2.05;;
34212;SDS011;20477;51.390;8.102;2022-12-29T14:22:04;8.25;;;1.73;;
34212;SDS011;20477;51.390;8.102;2022-12-29T14:27:25;3.30;;;1.30;;
34212;SDS011;20477;51.390;8.102;2022-12-29T14:29:48;5.97;;;1.98;;
34212;SDS011;20477;51.390;8.102;2022-12-29T14:34:47;9.65;;;1.70;;
34212;SDS011;20477;51.390;8.102;2022-12-29T14:37:28;6.97;;;2.30;;
34212;SDS011;20477;51.390;8.102;2022-12-29T14:42:53;8.60;;;1.58;;
34212;SDS011;20477;51.390;8.102;2022-12-29T14:45:30;12.85;;;1.90;;
34212;SDS011;20477;51.390;8.102;2022-12-29T14:47:59;6.80;;;1.60;;
34212;SDS011;20477;51.390;8.102;2022-12-29T14:53:00;4.35;;;1.50;;
34212;SDS011;20477;51.390;8.102;2022-12-29T14:55:54;5.57;;;1.40;;
34212;SDS011;20477;51.390;8.102;2022-12-29T14:58:31;8.65;;;2.17;;
34212;SDS011;20477;51.390;8.102;2022-12-29T15:01:05;8.55;;;1.50;;
34212;SDS011;20477;51.390;8.102;2022-12-29T15:04:21;11.05;;;2.17;;
34212;SDS011;20477;51.390;8.102;2022-12-29T15:06:52;13.20;;;2.40;;
34212;SDS011;20477;51.390;8.102;2022-12-29T15:09:29;6.90;;;1.75;;
34212;SDS011;20477;51.390;8.102;2022-12-29T15:14:58;6.05;;;1.67;;
34212;SDS011;20477;51.390;8.102;2022-12-29T15:17:27;4.80;;;1.65;;
34212;SDS011;20477;51.390;8.102;2022-12-29T15:19:54;7.35;;;2.25;;
34212;SDS011;20477;51.390;8.102;2022-12-29T15:22:22;7.20;;;1.80;;
34212;SDS011;20477;51.390;8.102;2022-12-29T15:24:51;8.20;;;2.03;;
34212;SDS011;20477;51.390;8.102;2022-12-29T15:27:20;6.32;;;1.48;;
34212;SDS011;20477;51.390;8.102;2022-12-29T15:29:58;10.15;;;1.98;;
34212;SDS011;20477;51.390;8.102;2022-12-29T15:32:45;9.02;;;2.22;;
34212;SDS011;20477;51.390;8.102;2022-12-29T15:35:30;7.18;;;1.63;;
34212;SDS011;20477;51.390;8.102;2022-12-29T15:37:57;4.43;;;1.83;;
34212;SDS011;20477;51.390;8.102;2022-12-29T15:40:29;5.63;;;0.98;;
34212;SDS011;20477;51.390;8.102;2022-12-29T15:45:39;6.15;;;1.42;;
34212;SDS011;20477;51.390;8.102;2022-12-29T15:48:10;9.25;;;1.77;;
34212;SDS011;20477;51.390;8.102;2022-12-29T15:50:43;8.07;;;1.50;;
34212;SDS011;20477;51.390;8.102;2022-12-29T15:53:11;8.30;;;1.30;;
34212;SDS011;20477;51.390;8.102;2022-12-29T15:55:39;8.95;;;1.95;;
34212;SDS011;20477;51.390;8.102;2022-12-29T15:58:18;7.95;;;1.92;;
34212;SDS011;20477;51.390;8.102;2022-12-29T16:00:55;8.13;;;1.55;;
34212;SDS011;20477;51.390;8.102;2022-12-29T16:03:25;5.97;;;1.00;;
34212;SDS011;20477;51.390;8.102;2022-12-29T16:06:10;6.55;;;1.48;;
34212;SDS011;20477;51.390;8.102;2022-12-29T16:08:58;8.35;;;1.35;;
34212;SDS011;20477;51.390;8.102;2022-12-29T16:14:00;8.18;;;1.48;;
34212;SDS011;20477;51.390;8.102;2022-12-29T16:16:29;7.00;;;1.50;;
34212;SDS011;20477;51.390;8.102;2022-12-29T16:18:58;8.00;;;2.05;;
34212;SDS011;20477;51.390;8.102;2022-12-29T16:21:27;6.15;;;1.42;;
34212;SDS011;20477;51.390;8.102;2022-12-29T16:23:57;9.98;;;1.42;;
34212;SDS011;20477;51.390;8.102;2022-12-29T16:26:27;4.72;;;1.20;;
34212;SDS011;20477;51.390;8.102;2022-12-29T16:28:58;7.65;;;1.40;;
34212;SDS011;20477;51.390;8.102;2022-12-29T16:31:36;7.90;;;1.88;;
34212;SDS011;20477;51.390;8.102;2022-12-29T16:34:25;4.38;;;1.30;;
34212;SDS011;20477;51.390;8.102;2022-12-29T16:37:24;5.45;;;1.55;;
34212;SDS011;20477;51.390;8.102;2022-12-29T16:43:25;6.97;;;1.90;;
34212;SDS011;20477;51.390;8.102;2022-12-29T16:48:28;5.22;;;1.23;;
34212;SDS011;20477;51.390;8.102;2022-12-29T16:51:00;5.32;;;1.10;;
34212;SDS011;20477;51.390;8.102;2022-12-29T16:53:37;9.90;;;2.30;;
34212;SDS011;20477;51.390;8.102;2022-12-29T16:56:07;7.07;;;1.63;;
34212;SDS011;20477;51.390;8.102;2022-12-29T16:58:35;7.63;;;1.45;;
34212;SDS011;20477;51.390;8.102;2022-12-29T17:01:03;6.57;;;1.40;;
34212;SDS011;20477;51.390;8.102;2022-12-29T17:03:37;8.48;;;1.80;;
34212;SDS011;20477;51.390;8.102;2022-12-29T17:06:05;7.63;;;1.63;;
34212;SDS011;20477;51.390;8.102;2022-12-29T17:08:40;6.35;;;1.98;;
34212;SDS011;20477;51.390;8.102;2022-12-29T17:11:14;6.78;;;1.83;;
34212;SDS011;20477;51.390;8.102;2022-12-29T17:14:13;5.40;;;1.60;;
34212;SDS011;20477;51.390;8.102;2022-12-29T17:16:45;8.63;;;1.70;;
34212;SDS011;20477;51.390;8.102;2022-12-29T17:19:16;11.85;;;2.13;;
34212;SDS011;20477;51.390;8.102;2022-12-29T17:21:44;11.18;;;3.88;;
34212;SDS011;20477;51.390;8.102;2022-12-29T17:24:14;9.88;;;2.90;;
34212;SDS011;20477;51.390;8.102;2022-12-29T17:26:43;12.15;;;3.75;;
34212;SDS011;20477;51.390;8.102;2022-12-29T17:29:15;9.68;;;2.55;;
34212;SDS011;20477;51.390;8.102;2022-12-29T17:31:56;5.25;;;1.63;;
34212;SDS011;20477;51.390;8.102;2022-12-29T17:34:23;12.65;;;1.70;;
34212;SDS011;20477;51.390;8.102;2022-12-29T17:36:50;9.05;;;2.08;;
34212;SDS011;20477;51.390;8.102;2022-12-29T17:39:17;9.70;;;2.28;;
34212;SDS011;20477;51.390;8.102;2022-12-29T17:41:43;7.57;;;2.25;;
34212;SDS011;20477;51.390;8.102;2022-12-29T17:44:17;5.97;;;1.77;;
34212;SDS011;20477;51.390;8.102;2022-12-29T17:46:46;8.45;;;2.72;;
34212;SDS011;20477;51.390;8.102;2022-12-29T17:49:15;7.47;;;1.58;;
34212;SDS011;20477;51.390;8.102;2022-12-29T17:51:43;11.07;;;2.58;;
34212;SDS011;20477;51.390;8.102;2022-12-29T17:54:18;7.45;;;1.60;;
34212;SDS011;20477;51.390;8.102;2022-12-29T17:56:47;11.68;;;2.63;;
34212;SDS011;20477;51.390;8.102;2022-12-29T17:59:14;11.00;;;2.33;;
34212;SDS011;20477;51.390;8.102;2022-12-29T18:01:42;13.68;;;2.28;;
34212;SDS011;20477;51.390;8.102;2022-12-29T18:04:12;12.05;;;2.03;;
34212;SDS011;20477;51.390;8.102;2022-12-29T18:06:40;12.07;;;1.77;;
34212;SDS011;20477;51.390;8.102;2022-12-29T18:09:08;6.75;;;1.95;;
34212;SDS011;20477;51.390;8.102;2022-12-29T18:11:39;11.15;;;2.58;;
34212;SDS011;20477;51.390;8.102;2022-12-29T18:14:10;10.35;;;2.58;;
34212;SDS011;20477;51.390;8.102;2022-12-29T18:16:41;13.85;;;2.60;;
34212;SDS011;20477;51.390;8.102;2022-12-29T18:19:09;9.65;;;1.92;;
34212;SDS011;20477;51.390;8.102;2022-12-29T18:21:39;9.15;;;2.53;;
34212;SDS011;20477;51.390;8.102;2022-12-29T18:24:10;9.38;;;2.22;;
34212;SDS011;20477;51.390;8.102;2022-12-29T18:26:40;10.88;;;2.20;;
34212;SDS011;20477;51.390;8.102;2022-12-29T18:29:07;11.20;;;1.77;;
34212;SDS011;20477;51.390;8.102;2022-12-29T18:31:34;12.25;;;2.17;;
34212;SDS011;20477;51.390;8.102;2022-12-29T18:34:06;17.77;;;2.97;;
34212;SDS011;20477;51.390;8.102;2022-12-29T18:36:38;16.77;;;3.00;;
34212;SDS011;20477;51.390;8.102;2022-12-29T18:39:05;12.70;;;2.42;;
34212;SDS011;20477;51.390;8.102;2022-12-29T18:41:32;7.75;;;2.05;;
34212;SDS011;20477;51.390;8.102;2022-12-29T18:43:59;13.80;;;2.22;;
34212;SDS011;20477;51.390;8.102;2022-12-29T18:46:26;9.18;;;2.10;;
34212;SDS011;20477;51.390;8.102;2022-12-29T18:48:54;8.30;;;2.33;;
34212;SDS011;20477;51.390;8.102;2022-12-29T18:51:22;13.23;;;2.92;;
34212;SDS011;20477;51.390;8.102;2022-12-29T18:53:50;12.48;;;2.65;;
34212;SDS011;20477;51.390;8.102;2022-12-29T18:56:19;20.52;;;2.60;;
34212;SDS011;20477;51.390;8.102;2022-12-29T18:58:48;13.27;;;2.70;;
34212;SDS011;20477;51.390;8.102;2022-12-29T19:01:19;20.38;;;3.05;;
34212;SDS011;20477;51.390;8.102;2022-12-29T19:03:48;18.52;;;2.65;;
34212;SDS011;20477;51.390;8.102;2022-12-29T19:06:16;15.55;;;2.50;;
34212;SDS011;20477;51.390;8.102;2022-12-29T19:08:43;14.13;;;3.05;;
34212;SDS011;20477;51.390;8.102;2022-12-29T19:11:09;15.45;;;2.88;;
34212;SDS011;20477;51.390;8.102;2022-12-29T19:13:36;9.63;;;2.25;;
34212;SDS011;20477;51.390;8.102;2022-12-29T19:16:03;15.93;;;2.25;;
34212;SDS011;20477;51.390;8.102;2022-12-29T19:18:33;10.32;;;2.20;;
34212;SDS011;20477;51.390;8.102;2022-12-29T19:21:12;12.57;;;2.30;;
34212;SDS011;20477;51.390;8.102;2022-12-29T19:23:40;15.23;;;2.38;;
34212;SDS011;20477;51.390;8.102;2022-12-29T19:26:11;8.82;;;2.55;;
34212;SDS011;20477;51.390;8.102;2022-12-29T19:28:52;15.00;;;2.72;;
34212;SDS011;20477;51.390;8.102;2022-12-29T19:31:20;12.10;;;2.25;;
34212;SDS011;20477;51.390;8.102;2022-12-29T19:33:46;13.32;;;3.05;;
34212;SDS011;20477;51.390;8.102;2022-12-29T19:36:13;11.80;;;2.47;;
34212;SDS011;20477;51.390;8.102;2022-12-29T19:38:43;11.57;;;2.50;;
34212;SDS011;20477;51.390;8.102;2022-12-29T19:41:11;17.65;;;3.15;;
34212;SDS011;20477;51.390;8.102;2022-12-29T19:43:39;12.68;;;2.55;;
34212;SDS011;20477;51.390;8.102;2022-12-29T19:46:07;16.38;;;3.00;;
34212;SDS011;20477;51.390;8.102;2022-12-29T19:48:35;13.63;;;2.50;;
34212;SDS011;20477;51.390;8.102;2022-12-29T19:51:02;14.32;;;3.22;;
34212;SDS011;20477;51.390;8.102;2022-12-29T19:53:30;14.35;;;2.65;;
34212;SDS011;20477;51.390;8.102;2022-12-29T19:56:00;13.25;;;3.22;;
34212;SDS011;20477;51.390;8.102;2022-12-29T19:58:29;11.38;;;2.53;;
34212;SDS011;20477;51.390;8.102;2022-12-29T20:01:02;15.43;;;3.65;;
34212;SDS011;20477;51.390;8.102;2022-12-29T20:03:33;15.57;;;2.90;;
34212;SDS011;20477;51.390;8.102;2022-12-29T20:06:01;16.83;;;3.22;;
34212;SDS011;20477;51.390;8.102;2022-12-29T20:08:28;12.95;;;2.30;;
34212;SDS011;20477;51.390;8.102;2022-12-29T20:10:56;7.38;;;2.63;;
34212;SDS011;20477;51.390;8.102;2022-12-29T20:13:24;9.43;;;2.30;;
34212;SDS011;20477;51.390;8.102;2022-12-29T20:15:55;9.63;;;2.13;;
34212;SDS011;20477;51.390;8.102;2022-12-29T20:18:23;12.32;;;3.67;;
34212;SDS011;20477;51.390;8.102;2022-12-29T20:21:01;13.23;;;2.63;;
34212;SDS011;20477;51.390;8.102;2022-12-29T20:23:33;9.27;;;2.53;;
34212;SDS011;20477;51.390;8.102;2022-12-29T20:26:00;16.95;;;2.47;;
34212;SDS011;20477;51.390;8.102;2022-12-29T20:28:28;12.93;;;3.05;;
34212;SDS011;20477;51.390;8.102;2022-12-29T20:33:23;12.00;;;2.35;;
34212;SDS011;20477;51.390;8.102;2022-12-29T20:35:50;12.80;;;3.42;;
34212;SDS011;20477;51.390;8.102;2022-12-29T20:38:17;15.23;;;3.80;;
34212;SDS011;20477;51.390;8.102;2022-12-29T20:40:44;15.32;;;2.95;;
34212;SDS011;20477;51.390;8.102;2022-12-29T20:43:13;15.95;;;2.92;;
34212;SDS011;20477;51.390;8.102;2022-12-29T20:45:40;10.77;;;3.20;;
34212;SDS011;20477;51.390;8.102;2022-12-29T20:48:08;19.73;;;3.92;;
34212;SDS011;20477;51.390;8.102;2022-12-29T20:50:35;10.02;;;3.38;;
34212;SDS011;20477;51.390;8.102;2022-12-29T20:53:02;15.40;;;2.88;;
34212;SDS011;20477;51.390;8.102;2022-12-29T20:55:29;18.98;;;3.25;;
34212;SDS011;20477;51.390;8.102;2022-12-29T20:57:56;9.75;;;2.47;;
34212;SDS011;20477;51.390;8.102;2022-12-29T21:00:43;14.88;;;2.97;;
34212;SDS011;20477;51.390;8.102;2022-12-29T21:03:10;12.15;;;3.17;;
34212;SDS011;20477;51.390;8.102;2022-12-29T21:05:37;11.70;;;2.92;;
34212;SDS011;20477;51.390;8.102;2022-12-29T21:08:04;14.30;;;3.22;;
34212;SDS011;20477;51.390;8.102;2022-12-29T21:10:31;15.85;;;3.40;;
34212;SDS011;20477;51.390;8.102;2022-12-29T21:12:58;19.10;;;3.70;;
34212;SDS011;20477;51.390;8.102;2022-12-29T21:15:27;22.85;;;4.65;;
34212;SDS011;20477;51.390;8.102;2022-12-29T21:17:55;12.35;;;3.00;;
34212;SDS011;20477;51.390;8.102;2022-12-29T21:20:22;15.07;;;3.45;;
34212;SDS011;20477;51.390;8.102;2022-12-29T21:22:57;21.52;;;3.47;;
34212;SDS011;20477;51.390;8.102;2022-12-29T21:25:26;15.13;;;3.83;;
34212;SDS011;20477;51.390;8.102;2022-12-29T21:28:06;15.77;;;4.72;;
34212;SDS011;20477;51.390;8.102;2022-12-29T21:30:34;14.75;;;3.50;;
34212;SDS011;20477;51.390;8.102;2022-12-29T21:33:01;18.67;;;3.60;;
34212;SDS011;20477;51.390;8.102;2022-12-29T21:35:28;12.50;;;2.38;;
34212;SDS011;20477;51.390;8.102;2022-12-29T21:37:55;19.02;;;3.30;;
34212;SDS011;20477;51.390;8.102;2022-12-29T21:40:22;20.95;;;3.35;;
34212;SDS011;20477;51.390;8.102;2022-12-29T21:42:49;18.90;;;3.08;;
34212;SDS011;20477;51.390;8.102;2022-12-29T21:45:16;19.90;;;3.35;;
34212;SDS011;20477;51.390;8.102;2022-12-29T21:47:53;42.40;;;4.38;;
34212;SDS011;20477;51.390;8.102;2022-12-29T21:50:42;17.60;;;3.70;;
34212;SDS011;20477;51.390;8.102;2022-12-29T21:53:33;17.45;;;4.35;;
34212;SDS011;20477;51.390;8.102;2022-12-29T21:56:06;17.98;;;3.88;;
34212;SDS011;20477;51.390;8.102;2022-12-29T21:58:34;14.68;;;2.80;;
34212;SDS011;20477;51.390;8.102;2022-12-29T22:01:21;18.88;;;3.45;;
34212;SDS011;20477;51.390;8.102;2022-12-29T22:04:09;15.55;;;3.35;;
34212;SDS011;20477;51.390;8.102;2022-12-29T22:06:56;11.85;;;2.88;;
34212;SDS011;20477;51.390;8.102;2022-12-29T22:09:42;15.00;;;3.13;;
34212;SDS011;20477;51.390;8.102;2022-12-29T22:12:28;19.10;;;3.30;;
34212;SDS011;20477;51.390;8.102;2022-12-29T22:15:15;21.50;;;4.63;;
34212;SDS011;20477;51.390;8.102;2022-12-29T22:17:51;35.78;;;4.53;;
34212;SDS011;20477;51.390;8.102;2022-12-29T22:20:20;16.85;;;3.47;;
34212;SDS011;20477;51.390;8.102;2022-12-29T22:22:49;25.15;;;3.67;;
34212;SDS011;20477;51.390;8.102;2022-12-29T22:25:16;14.65;;;2.63;;
34212;SDS011;20477;51.390;8.102;2022-12-29T22:27:43;22.65;;;4.72;;
34212;SDS011;20477;51.390;8.102;2022-12-29T22:30:10;22.85;;;3.35;;
34212;SDS011;20477;51.390;8.102;2022-12-29T22:32:38;15.07;;;2.92;;
34212;SDS011;20477;51.390;8.102;2022-12-29T22:35:09;19.00;;;3.90;;
34212;SDS011;20477;51.390;8.102;2022-12-29T22:37:38;18.25;;;2.58;;
34212;SDS011;20477;51.390;8.102;2022-12-29T22:40:06;14.90;;;3.17;;
34212;SDS011;20477;51.390;8.102;2022-12-29T22:42:36;20.02;;;3.42;;
34212;SDS011;20477;51.390;8.102;2022-12-29T22:45:04;21.00;;;3.15;;
34212;SDS011;20477;51.390;8.102;2022-12-29T22:47:31;16.27;;;3.17;;
34212;SDS011;20477;51.390;8.102;2022-12-29T22:49:59;13.90;;;3.00;;
34212;SDS011;20477;51.390;8.102;2022-12-29T22:52:25;16.92;;;4.10;;
34212;SDS011;20477;51.390;8.102;2022-12-29T22:54:52;16.02;;;3.60;;
34212;SDS011;20477;51.390;8.102;2022-12-29T22:57:20;12.60;;;2.78;;
34212;SDS011;20477;51.390;8.102;2022-12-29T22:59:46;16.20;;;2.88;;
34212;SDS011;20477;51.390;8.102;2022-12-29T23:02:13;15.88;;;4.03;;
34212;SDS011;20477;51.390;8.102;2022-12-29T23:04:40;17.73;;;3.15;;
34212;SDS011;20477;51.390;8.102;2022-12-29T23:07:27;28.08;;;4.32;;
34212;SDS011;20477;51.390;8.102;2022-12-29T23:09:54;11.23;;;2.63;;
34212;SDS011;20477;51.390;8.102;2022-12-29T23:12:21;23.73;;;3.33;;
34212;SDS011;20477;51.390;8.102;2022-12-29T23:14:48;11.23;;;3.13;;
34212;SDS011;20477;51.390;8.102;2022-12-29T23:17:15;17.60;;;4.22;;
34212;SDS011;20477;51.390;8.102;2022-12-29T23:19:43;14.40;;;3.53;;
34212;SDS011;20477;51.390;8.102;2022-12-29T23:22:10;22.75;;;3.17;;
34212;SDS011;20477;51.390;8.102;2022-12-29T23:24:36;11.80;;;2.72;;
34212;SDS011;20477;51.390;8.102;2022-12-29T23:27:03;18.13;;;2.72;;
34212;SDS011;20477;51.390;8.102;2022-12-29T23:29:32;17.30;;;3.80;;
34212;SDS011;20477;51.390;8.102;2022-12-29T23:31:59;14.68;;;4.13;;
34212;SDS011;20477;51.390;8.102;2022-12-29T23:34:26;19.48;;;3.53;;
34212;SDS011;20477;51.390;8.102;2022-12-29T23:36:53;18.77;;;3.97;;
34212;SDS011;20477;51.390;8.102;2022-12-29T23:39:21;19.92;;;3.47;;
34212;SDS011;20477;51.390;8.102;2022-12-29T23:41:51;21.50;;;3.47;;
34212;SDS011;20477;51.390;8.102;2022-12-29T23:44:18;24.55;;;3.35;;
34212;SDS011;20477;51.390;8.102;2022-12-29T23:46:45;14.13;;;2.55;;
34212;SDS011;20477;51.390;8.102;2022-12-29T23:49:12;13.60;;;2.55;;
34212;SDS011;20477;51.390;8.102;2022-12-29T23:51:39;19.08;;;3.53;;
34212;SDS011;20477;51.390;8.102;2022-12-29T23:54:06;20.70;;;3.45;;
34212;SDS011;20477;51.390;8.102;2022-12-29T23:56:32;20.45;;;5.13;;
34212;SDS011;20477;51.390;8.102;2022-12-29T23:59:01;18.70;;;4.35;;
